Time;durP1;ratioP1;P1;durP2;ratioP2;P2;SDS_P1;SDS_P2;PMS_P1;PMS_P2;Temp;Humidity;BMP_temperature;BMP_pressure;BME280_temperature;BME280_humidity;BME280_pressure;Samples;Min_cycle;Max_cycle;Signal;HPM_P1;HPM_P2
2021/10/17 00:00:38;;;;;;;0.90;0.60;;;9.60;99.90;;;;;;5051979;28;20386;-68
2021/10/17 00:03:07;;;;;;;1.00;0.60;;;9.50;99.90;;;;;;5051542;28;20448;-68
2021/10/17 00:05:36;;;;;;;0.90;0.50;;;9.50;99.90;;;;;;5051941;28;20641;-68
2021/10/17 00:08:05;;;;;;;4.63;0.90;;;9.60;99.90;;;;;;5052096;28;20427;-68
2021/10/17 00:10:36;;;;;;;0.90;0.60;;;9.60;99.90;;;;;;5052459;28;20882;-69
2021/10/17 00:13:06;;;;;;;0.83;0.50;;;9.60;99.90;;;;;;5052674;28;20435;-67
2021/10/17 00:15:36;;;;;;;0.80;0.50;;;9.70;99.90;;;;;;5053022;28;20415;-67
2021/10/17 00:18:05;;;;;;;0.80;0.50;;;9.70;99.90;;;;;;5051738;28;20426;-68
2021/10/17 00:20:36;;;;;;;0.80;0.50;;;9.80;99.90;;;;;;5051524;28;20478;-68
2021/10/17 00:23:04;;;;;;;0.80;0.50;;;9.90;99.90;;;;;;5050873;28;20517;-68
2021/10/17 00:25:33;;;;;;;0.80;0.50;;;9.90;99.90;;;;;;5051337;28;20427;-68
2021/10/17 00:28:01;;;;;;;0.80;0.50;;;9.90;99.90;;;;;;5051311;28;20420;-68
2021/10/17 00:30:36;;;;;;;1.00;0.50;;;9.90;99.90;;;;;;5033524;28;20464;-68
2021/10/17 00:33:04;;;;;;;0.80;0.50;;;9.70;99.90;;;;;;5033086;28;20459;-68
2021/10/17 00:35:33;;;;;;;1.10;0.60;;;9.70;99.90;;;;;;5033208;28;20562;-69
2021/10/17 00:38:02;;;;;;;0.80;0.50;;;9.70;99.90;;;;;;5033553;28;20416;-67
2021/10/17 00:40:31;;;;;;;1.80;0.70;;;9.80;99.90;;;;;;5051506;28;20411;-69
2021/10/17 00:42:59;;;;;;;0.80;0.40;;;9.80;99.90;;;;;;5033244;28;20569;-67
2021/10/17 00:45:29;;;;;;;0.90;0.60;;;9.70;99.90;;;;;;5051241;28;20390;-69
2021/10/17 00:47:59;;;;;;;0.80;0.50;;;9.60;99.90;;;;;;5051259;28;20458;-66
2021/10/17 00:50:29;;;;;;;0.93;0.60;;;9.70;99.90;;;;;;5033257;28;20427;-67
2021/10/17 00:52:58;;;;;;;0.80;0.50;;;9.60;99.90;;;;;;5051149;28;20422;-67
2021/10/17 00:55:29;;;;;;;1.20;0.60;;;9.50;99.90;;;;;;5051122;28;20423;-67
2021/10/17 00:58:16;;;;;;;0.90;0.60;;;9.50;99.90;;;;;;5033385;28;20474;-67
2021/10/17 01:00:45;;;;;;;1.37;0.63;;;9.40;99.90;;;;;;5033152;28;20973;-70
2021/10/17 01:03:14;;;;;;;0.90;0.60;;;9.40;99.90;;;;;;5050707;28;20483;-69
2021/10/17 01:05:42;;;;;;;0.97;0.63;;;9.40;99.90;;;;;;5051119;28;20424;-66
2021/10/17 01:08:10;;;;;;;0.80;0.50;;;9.30;99.90;;;;;;5051195;28;20423;-69
2021/10/17 01:10:40;;;;;;;1.23;0.70;;;9.30;99.90;;;;;;5033462;28;20427;-68
2021/10/17 01:13:15;;;;;;;0.80;0.50;;;9.40;99.90;;;;;;5032493;28;20455;-68
2021/10/17 01:15:43;;;;;;;0.80;0.50;;;9.30;99.90;;;;;;5033266;28;20446;-69
2021/10/17 01:18:12;;;;;;;0.80;0.60;;;9.30;99.90;;;;;;5032973;28;20200;-67
2021/10/17 01:20:44;;;;;;;0.80;0.40;;;9.30;99.90;;;;;;5033075;28;20432;-67
2021/10/17 01:23:12;;;;;;;0.93;0.70;;;9.30;99.90;;;;;;5032482;28;20452;-67
2021/10/17 01:25:40;;;;;;;0.90;0.60;;;9.40;99.90;;;;;;5032788;28;20432;-67
2021/10/17 01:28:09;;;;;;;2.20;0.75;;;9.40;99.90;;;;;;5050855;28;20438;-69
2021/10/17 01:30:37;;;;;;;0.80;0.50;;;9.40;99.90;;;;;;5050992;28;20599;-68
2021/10/17 01:33:06;;;;;;;1.60;1.03;;;9.40;99.90;;;;;;5050520;28;20459;-68
2021/10/17 01:35:34;;;;;;;0.90;0.60;;;9.40;99.90;;;;;;5050613;28;20405;-68
2021/10/17 01:38:04;;;;;;;0.80;0.50;;;9.40;99.90;;;;;;5032621;28;20823;-68
2021/10/17 01:40:33;;;;;;;1.00;0.73;;;9.30;99.90;;;;;;5032714;28;20418;-68
2021/10/17 01:43:02;;;;;;;2.63;0.85;;;9.30;99.90;;;;;;5032512;28;20533;-67
2021/10/17 01:45:44;;;;;;;1.77;0.60;;;9.30;99.90;;;;;;5033322;28;20227;-67
2021/10/17 01:48:14;;;;;;;0.90;0.52;;;9.30;99.90;;;;;;5036762;28;20941;-67
2021/10/17 01:50:44;;;;;;;0.80;0.50;;;9.30;99.90;;;;;;5036820;28;20200;-67
2021/10/17 01:53:16;;;;;;;0.80;0.50;;;9.30;99.90;;;;;;5036198;28;20209;-67
2021/10/17 01:55:44;;;;;;;1.83;0.70;;;9.30;99.90;;;;;;5036490;28;20787;-67
2021/10/17 01:58:12;;;;;;;0.93;0.73;;;9.20;99.90;;;;;;5036556;28;20197;-67
2021/10/17 02:00:41;;;;;;;0.80;0.52;;;9.20;99.90;;;;;;5036346;28;20192;-68
2021/10/17 02:03:10;;;;;;;2.00;0.70;;;9.20;99.90;;;;;;5035835;28;20499;-68
2021/10/17 02:05:42;;;;;;;0.83;0.50;;;9.30;99.90;;;;;;5036166;28;20478;-68
2021/10/17 02:08:10;;;;;;;0.90;0.67;;;9.30;99.90;;;;;;5036476;28;20442;-67
2021/10/17 02:10:40;;;;;;;0.93;0.50;;;9.30;99.90;;;;;;5035964;28;20943;-67
2021/10/17 02:13:11;;;;;;;0.80;0.50;;;9.20;99.90;;;;;;5035729;28;20209;-67
2021/10/17 02:15:39;;;;;;;1.50;0.63;;;9.30;99.90;;;;;;5036025;28;20415;-67
2021/10/17 02:18:08;;;;;;;0.80;0.50;;;9.30;99.90;;;;;;5036104;28;20439;-69
2021/10/17 02:20:45;;;;;;;0.90;0.63;;;9.20;99.90;;;;;;5036447;28;20436;-67
2021/10/17 02:23:16;;;;;;;0.90;0.60;;;9.20;99.90;;;;;;5036101;28;20558;-66
2021/10/17 02:25:47;;;;;;;1.10;0.60;;;9.30;99.90;;;;;;5036816;28;20489;-68
2021/10/17 02:28:15;;;;;;;1.10;1.00;;;9.30;99.90;;;;;;5055764;28;20853;-68
2021/10/17 02:30:51;;;;;;;0.90;0.50;;;9.30;99.90;;;;;;5038879;28;20453;-68
2021/10/17 02:33:24;;;;;;;0.90;0.70;;;9.20;99.90;;;;;;5036667;28;20466;-67
2021/10/17 02:35:52;;;;;;;0.80;0.50;;;9.20;99.90;;;;;;5037637;28;20405;-67
2021/10/17 02:38:20;;;;;;;0.80;0.50;;;9.20;99.90;;;;;;5037141;28;20470;-67
2021/10/17 02:40:51;;;;;;;1.00;0.68;;;9.30;99.90;;;;;;5024296;28;20510;-68
2021/10/17 02:43:20;;;;;;;1.00;0.60;;;9.30;99.90;;;;;;5015792;28;20217;-67
2021/10/17 02:45:51;;;;;;;1.20;0.60;;;9.40;99.90;;;;;;5015987;28;20439;-67
2021/10/17 02:48:20;;;;;;;0.90;0.50;;;9.30;99.90;;;;;;5034237;28;20464;-67
2021/10/17 02:50:49;;;;;;;1.97;0.60;;;9.30;99.90;;;;;;5016225;28;20862;-67
2021/10/17 02:53:17;;;;;;;1.00;0.70;;;9.40;99.90;;;;;;5034512;28;20815;-68
2021/10/17 02:55:46;;;;;;;0.80;0.57;;;9.40;99.90;;;;;;5016671;28;21019;-68
2021/10/17 02:58:15;;;;;;;0.80;0.50;;;9.40;99.90;;;;;;5015412;28;20432;-67
2021/10/17 03:00:46;;;;;;;0.80;0.50;;;9.40;99.90;;;;;;5015701;28;20943;-67
2021/10/17 03:03:15;;;;;;;0.83;0.50;;;9.30;99.90;;;;;;5015769;28;20456;-66
2021/10/17 03:05:46;;;;;;;2.30;0.80;;;9.30;99.90;;;;;;5015929;28;20499;-68
2021/10/17 03:08:14;;;;;;;0.90;0.60;;;9.20;99.90;;;;;;5015747;28;20459;-67
2021/10/17 03:10:42;;;;;;;0.90;0.50;;;9.30;99.90;;;;;;5015175;28;20421;-66
2021/10/17 03:13:11;;;;;;;0.80;0.50;;;9.30;99.90;;;;;;5014970;28;20458;-66
2021/10/17 03:15:40;;;;;;;0.80;0.50;;;9.20;99.90;;;;;;5015974;28;21012;-66
2021/10/17 03:18:13;;;;;;;1.73;0.73;;;9.20;99.90;;;;;;5015411;28;20192;-66
2021/10/17 03:20:41;;;;;;;2.20;0.60;;;9.20;99.90;;;;;;5015238;28;20201;-66
2021/10/17 03:23:12;;;;;;;1.00;0.60;;;9.10;99.90;;;;;;5015253;28;20463;-66
2021/10/17 03:25:41;;;;;;;0.90;0.53;;;9.10;99.90;;;;;;5015162;28;20566;-67
2021/10/17 03:28:10;;;;;;;0.80;0.40;;;9.00;99.90;;;;;;5015822;28;20437;-67
2021/10/17 03:30:40;;;;;;;0.80;0.50;;;8.80;99.90;;;;;;5033007;28;20186;-66
2021/10/17 03:33:11;;;;;;;1.03;0.60;;;8.70;99.90;;;;;;5015096;28;20220;-67
2021/10/17 03:35:40;;;;;;;0.80;0.50;;;8.60;99.90;;;;;;5015181;28;20407;-67
2021/10/17 03:38:08;;;;;;;0.90;0.60;;;8.60;99.90;;;;;;5015348;28;20450;-67
2021/10/17 03:40:36;;;;;;;0.80;0.50;;;8.40;99.90;;;;;;5015338;28;20224;-67
2021/10/17 03:43:05;;;;;;;1.23;1.05;;;8.40;99.90;;;;;;5014451;28;20667;-66
2021/10/17 03:45:45;;;;;;;0.95;0.60;;;8.30;99.90;;;;;;5014887;28;20291;-67
2021/10/17 03:48:13;;;;;;;1.23;0.90;;;8.20;99.90;;;;;;5014820;28;20227;-67
2021/10/17 03:50:42;;;;;;;2.05;0.93;;;8.20;99.90;;;;;;5015138;28;20189;-66
2021/10/17 03:53:10;;;;;;;1.20;0.50;;;8.10;99.90;;;;;;5031819;28;20206;-66
2021/10/17 03:55:41;;;;;;;1.15;0.80;;;8.00;99.90;;;;;;5014564;28;20721;-66
2021/10/17 03:58:09;;;;;;;0.95;0.70;;;7.90;99.90;;;;;;5014350;28;20271;-68
2021/10/17 04:00:37;;;;;;;0.90;0.60;;;7.80;99.90;;;;;;5031992;28;20182;-66
2021/10/17 04:03:10;;;;;;;1.02;0.70;;;7.70;99.90;;;;;;5032863;28;20312;-68
2021/10/17 04:05:38;;;;;;;1.00;0.60;;;7.60;99.90;;;;;;5014026;28;20728;-66
2021/10/17 04:08:08;;;;;;;0.90;0.60;;;7.60;99.90;;;;;;5013421;28;20256;-66
2021/10/17 04:10:37;;;;;;;0.80;0.50;;;7.50;99.90;;;;;;5014059;28;20247;-66
2021/10/17 04:13:05;;;;;;;0.90;0.60;;;7.50;99.90;;;;;;5016293;28;20236;-68
2021/10/17 04:15:35;;;;;;;1.23;0.73;;;7.50;99.90;;;;;;5014244;28;20289;-67
2021/10/17 04:18:08;;;;;;;0.90;0.50;;;7.50;99.90;;;;;;5013863;28;20197;-67
2021/10/17 04:20:37;;;;;;;1.00;0.50;;;7.40;99.90;;;;;;5013611;28;20189;-66
2021/10/17 04:23:07;;;;;;;0.90;0.60;;;7.30;99.90;;;;;;5031355;28;20212;-66
2021/10/17 04:25:35;;;;;;;0.90;0.60;;;7.30;99.90;;;;;;5013781;28;20228;-68
2021/10/17 04:28:06;;;;;;;0.90;0.60;;;7.20;99.90;;;;;;5013949;28;20203;-68
2021/10/17 04:30:35;;;;;;;0.80;0.50;;;7.20;99.90;;;;;;5013755;28;20189;-67
2021/10/17 04:33:03;;;;;;;2.08;1.52;;;7.10;99.90;;;;;;5013550;28;20300;-68
2021/10/17 04:35:36;;;;;;;0.82;0.57;;;7.00;99.90;;;;;;5013690;28;20189;-67
2021/10/17 04:38:06;;;;;;;0.80;0.50;;;7.00;99.90;;;;;;5031449;28;20197;-68
2021/10/17 04:40:37;;;;;;;0.80;0.50;;;7.00;99.90;;;;;;5013665;28;20546;-67
2021/10/17 04:43:05;;;;;;;0.88;0.60;;;6.90;99.90;;;;;;5031255;28;20216;-67
2021/10/17 04:45:37;;;;;;;1.00;0.70;;;7.00;99.90;;;;;;5031320;28;20621;-68
2021/10/17 04:48:06;;;;;;;1.48;0.70;;;7.00;99.90;;;;;;5031770;28;20198;-68
2021/10/17 04:50:34;;;;;;;0.80;0.50;;;6.90;99.90;;;;;;5014411;28;20592;-68
2021/10/17 04:53:02;;;;;;;1.20;0.70;;;6.90;99.90;;;;;;5031145;28;20205;-68
2021/10/17 04:55:32;;;;;;;0.90;0.60;;;6.80;99.90;;;;;;5013409;28;20200;-68
2021/10/17 04:58:04;;;;;;;0.85;0.50;;;6.80;99.90;;;;;;5013622;28;20743;-69
2021/10/17 05:00:33;;;;;;;0.80;0.50;;;6.80;99.90;;;;;;5013559;28;20189;-67
2021/10/17 05:03:03;;;;;;;2.97;0.98;;;6.80;99.90;;;;;;5013223;28;20217;-67
2021/10/17 05:05:33;;;;;;;0.85;0.55;;;6.70;99.90;;;;;;5013386;28;20224;-68
2021/10/17 05:08:03;;;;;;;0.80;0.50;;;6.80;99.90;;;;;;5031106;28;20604;-67
2021/10/17 05:10:36;;;;;;;0.80;0.50;;;6.60;99.90;;;;;;5013222;28;20785;-66
2021/10/17 05:13:06;;;;;;;1.05;0.63;;;6.60;99.90;;;;;;5012968;28;20871;-67
2021/10/17 05:15:35;;;;;;;0.80;0.50;;;6.60;99.90;;;;;;5030844;28;20186;-67
2021/10/17 05:18:03;;;;;;;1.20;0.98;;;6.70;99.90;;;;;;5013056;28;20200;-68
2021/10/17 05:20:32;;;;;;;0.80;0.50;;;6.70;99.90;;;;;;5032901;28;20197;-68
2021/10/17 05:23:00;;;;;;;0.80;0.50;;;6.70;99.90;;;;;;5017189;28;20224;-68
2021/10/17 05:25:28;;;;;;;0.80;0.47;;;6.80;99.90;;;;;;5017186;28;20236;-67
2021/10/17 05:27:59;;;;;;;0.90;0.60;;;6.80;99.90;;;;;;5017108;28;20681;-67
2021/10/17 05:30:27;;;;;;;0.90;0.50;;;6.90;99.90;;;;;;5017198;28;20285;-67
2021/10/17 05:32:55;;;;;;;1.05;0.50;;;7.00;99.90;;;;;;5016681;28;20209;-67
2021/10/17 05:35:24;;;;;;;0.80;0.50;;;7.10;99.90;;;;;;5017206;28;20797;-67
2021/10/17 05:37:52;;;;;;;1.00;0.80;;;7.10;99.90;;;;;;5016792;28;20280;-67
2021/10/17 05:40:21;;;;;;;0.80;0.50;;;7.20;99.90;;;;;;5017386;28;20220;-67
2021/10/17 05:42:49;;;;;;;3.10;1.20;;;7.10;99.90;;;;;;5016605;28;20702;-68
2021/10/17 05:45:18;;;;;;;0.90;0.68;;;7.20;99.90;;;;;;5016954;28;20263;-68
2021/10/17 05:47:47;;;;;;;1.00;0.80;;;7.30;99.90;;;;;;5016879;28;20666;-68
2021/10/17 05:50:15;;;;;;;1.10;0.60;;;7.40;99.90;;;;;;5016884;28;20189;-68
2021/10/17 05:52:44;;;;;;;0.90;0.50;;;7.60;99.90;;;;;;5016877;28;20218;-68
2021/10/17 05:55:12;;;;;;;0.80;0.50;;;7.60;99.90;;;;;;5016778;28;20721;-68
2021/10/17 05:57:40;;;;;;;0.80;0.60;;;7.70;99.90;;;;;;5016984;28;20216;-67
2021/10/17 06:00:10;;;;;;;0.80;0.50;;;7.80;99.90;;;;;;5017004;28;20193;-67
2021/10/17 06:02:49;;;;;;;0.80;0.50;;;7.90;99.90;;;;;;5034582;28;20720;-66
2021/10/17 06:05:21;;;;;;;1.38;0.88;;;8.00;99.90;;;;;;5017039;28;20275;-67
2021/10/17 06:07:51;;;;;;;1.35;0.85;;;8.00;99.90;;;;;;5016527;28;20197;-67
2021/10/17 06:10:19;;;;;;;2.55;0.80;;;8.20;99.90;;;;;;5016659;28;20217;-68
2021/10/17 06:12:49;;;;;;;0.85;0.47;;;8.30;99.90;;;;;;5016251;28;20633;-67
2021/10/17 06:15:17;;;;;;;0.90;0.70;;;8.40;99.90;;;;;;5016510;28;20220;-67
2021/10/17 06:17:45;;;;;;;1.27;0.75;;;8.30;99.90;;;;;;5016393;28;20190;-67
2021/10/17 06:20:15;;;;;;;1.70;1.20;;;8.40;99.90;;;;;;5016417;28;20192;-67
2021/10/17 06:22:46;;;;;;;0.80;0.50;;;8.40;99.90;;;;;;5033833;28;20229;-67
2021/10/17 06:25:15;;;;;;;1.73;0.70;;;8.50;99.90;;;;;;5016087;28;20670;-69
2021/10/17 06:27:43;;;;;;;0.82;0.60;;;8.60;99.90;;;;;;5016135;28;20606;-67
2021/10/17 06:30:12;;;;;;;1.80;0.80;;;8.70;99.90;;;;;;5016088;28;20200;-67
2021/10/17 06:32:40;;;;;;;1.33;0.75;;;8.60;99.90;;;;;;5014940;28;20224;-69
2021/10/17 06:35:13;;;;;;;1.15;0.70;;;8.70;99.90;;;;;;5015987;28;20680;-66
2021/10/17 06:37:43;;;;;;;0.80;0.45;;;8.80;99.90;;;;;;5015945;28;20236;-67
2021/10/17 06:40:12;;;;;;;1.10;0.80;;;8.80;99.90;;;;;;5015864;28;20281;-67
2021/10/17 06:42:40;;;;;;;0.80;0.50;;;8.70;99.90;;;;;;5015953;28;20217;-67
2021/10/17 06:45:47;;;;;;;1.98;1.00;;;8.80;99.90;;;;;;5033358;28;20319;-67
2021/10/17 06:48:17;;;;;;;1.70;1.13;;;8.90;99.90;;;;;;5015694;28;20252;-68
2021/10/17 06:50:46;;;;;;;0.90;0.65;;;9.00;99.90;;;;;;5015461;28;20296;-68
2021/10/17 06:53:16;;;;;;;1.33;0.70;;;9.00;99.90;;;;;;5015656;28;20304;-68
2021/10/17 06:55:45;;;;;;;0.90;0.50;;;9.10;99.90;;;;;;5015663;28;20587;-69
2021/10/17 06:58:16;;;;;;;0.90;0.60;;;9.10;99.90;;;;;;5015824;28;20202;-67
2021/10/17 07:00:45;;;;;;;0.90;0.50;;;9.10;99.90;;;;;;5015400;28;20194;-69
2021/10/17 07:03:14;;;;;;;0.90;0.70;;;9.10;99.90;;;;;;5015099;28;20213;-67
2021/10/17 07:06:06;;;;;;;0.90;0.50;;;9.20;99.90;;;;;;5015368;28;20840;-68
2021/10/17 07:08:38;;;;;;;1.83;0.80;;;9.40;99.90;;;;;;5015435;28;20292;-68
2021/10/17 07:11:07;;;;;;;0.80;0.50;;;9.50;99.90;;;;;;5015247;28;20868;-68
2021/10/17 07:13:38;;;;;;;0.87;0.60;;;9.50;99.90;;;;;;5032871;28;20459;-67
2021/10/17 07:16:09;;;;;;;0.80;0.50;;;9.70;99.90;;;;;;5018318;28;20965;-68
2021/10/17 07:18:38;;;;;;;0.80;0.50;;;9.70;99.90;;;;;;5015279;28;20467;-68
2021/10/17 07:21:06;;;;;;;0.90;0.50;;;9.70;99.90;;;;;;5015144;28;20487;-69
2021/10/17 07:23:34;;;;;;;0.90;0.70;;;9.90;99.90;;;;;;5014943;28;20439;-68
2021/10/17 07:26:03;;;;;;;0.90;0.50;;;10.10;99.90;;;;;;5014901;28;20578;-68
2021/10/17 07:28:32;;;;;;;0.80;0.43;;;10.30;99.90;;;;;;5014932;28;20958;-68
2021/10/17 07:31:04;;;;;;;0.90;0.50;;;10.40;99.90;;;;;;5014768;28;20857;-68
2021/10/17 07:33:54;;;;;;;1.60;1.00;;;10.60;99.90;;;;;;5014885;28;20443;-68
2021/10/17 07:36:23;;;;;;;1.00;0.70;;;10.70;99.90;;;;;;5014832;28;20499;-69
2021/10/17 07:39:14;;;;;;;0.90;0.60;;;10.70;99.90;;;;;;5015568;28;20399;-67
2021/10/17 07:41:48;;;;;;;1.10;0.60;;;10.80;99.90;;;;;;5015544;28;20479;-67
2021/10/17 07:44:17;;;;;;;0.93;0.60;;;10.80;99.90;;;;;;5032968;28;20399;-66
2021/10/17 07:46:58;;;;;;;0.90;0.60;;;10.90;99.90;;;;;;5014739;28;20472;-67
2021/10/17 07:49:30;;;;;;;2.43;1.63;;;10.70;99.90;;;;;;5014973;28;20407;-68
2021/10/17 07:51:59;;;;;;;0.90;0.50;;;10.50;99.90;;;;;;5014497;28;20455;-68
2021/10/17 07:54:28;;;;;;;0.80;0.47;;;10.40;99.90;;;;;;5015164;28;20407;-68
2021/10/17 07:57:00;;;;;;;0.90;0.60;;;10.30;99.90;;;;;;5015110;28;20429;-68
2021/10/17 07:59:33;;;;;;;0.90;0.50;;;10.40;99.90;;;;;;5014768;28;20406;-67
2021/10/17 08:02:03;;;;;;;0.80;0.60;;;10.40;99.90;;;;;;5014989;28;20456;-67
2021/10/17 08:04:38;;;;;;;0.80;0.50;;;10.50;99.90;;;;;;5016383;28;20486;-68
2021/10/17 08:07:15;;;;;;;0.90;0.73;;;10.80;99.90;;;;;;5015774;28;20994;-67
2021/10/17 08:09:45;;;;;;;1.30;1.00;;;10.60;99.90;;;;;;5016689;28;20432;-67
2021/10/17 08:12:15;;;;;;;0.80;0.50;;;10.60;99.90;;;;;;5016409;28;20435;-69
2021/10/17 08:14:44;;;;;;;0.80;0.50;;;10.60;99.90;;;;;;5016737;28;20432;-68
2021/10/17 08:17:13;;;;;;;0.90;0.70;;;10.80;99.90;;;;;;5016061;28;20436;-68
2021/10/17 08:19:55;;;;;;;1.27;0.53;;;10.80;99.90;;;;;;5015740;28;20407;-67
2021/10/17 08:22:24;;;;;;;1.10;0.80;;;11.00;99.90;;;;;;5014192;28;20869;-66
2021/10/17 08:24:52;;;;;;;1.00;0.60;;;11.10;99.90;;;;;;5014359;28;20422;-67
2021/10/17 08:27:22;;;;;;;1.00;0.90;;;11.30;99.90;;;;;;5014194;28;20461;-66
2021/10/17 08:29:50;;;;;;;1.40;0.97;;;11.20;99.90;;;;;;5014223;28;20432;-66
2021/10/17 08:32:20;;;;;;;0.90;0.50;;;11.40;99.90;;;;;;5013942;28;20821;-67
2021/10/17 08:34:49;;;;;;;1.80;1.70;;;11.40;99.90;;;;;;5014379;28;20440;-67
2021/10/17 08:37:17;;;;;;;1.63;0.80;;;11.40;99.90;;;;;;5032028;28;20405;-66
2021/10/17 08:40:05;;;;;;;0.80;0.40;;;11.50;99.90;;;;;;5032254;28;20412;-67
2021/10/17 08:43:00;;;;;;;1.47;0.93;;;11.80;99.90;;;;;;5031281;28;20489;-67
2021/10/17 08:45:37;;;;;;;1.00;0.50;;;11.90;99.90;;;;;;5014102;28;20502;-67
2021/10/17 08:48:09;;;;;;;0.80;0.60;;;11.80;99.90;;;;;;5014058;28;20502;-67
2021/10/17 08:50:47;;;;;;;0.90;0.60;;;11.70;99.90;;;;;;5013850;28;20434;-66
2021/10/17 08:53:17;;;;;;;1.40;0.97;;;11.40;99.90;;;;;;5013667;28;21286;-67
2021/10/17 08:55:57;;;;;;;1.63;0.67;;;11.40;99.90;;;;;;5013260;28;20440;-67
2021/10/17 08:58:37;;;;;;;1.67;0.73;;;11.50;99.90;;;;;;5013977;28;20443;-67
2021/10/17 09:01:12;;;;;;;0.80;0.50;;;11.80;99.90;;;;;;5013614;28;20522;-67
2021/10/17 09:03:53;;;;;;;0.80;0.50;;;11.90;99.90;;;;;;5013532;28;20424;-66
2021/10/17 09:06:27;;;;;;;0.90;0.50;;;12.20;99.90;;;;;;5013677;28;20410;-68
2021/10/17 09:09:09;;;;;;;1.30;0.80;;;12.00;99.90;;;;;;5013128;28;20428;-67
2021/10/17 09:11:46;;;;;;;0.80;0.50;;;12.00;99.90;;;;;;5013836;28;20563;-67
2021/10/17 09:14:17;;;;;;;1.00;0.50;;;12.10;99.90;;;;;;5031105;28;20407;-67
2021/10/17 09:16:48;;;;;;;1.00;0.60;;;12.40;99.90;;;;;;5031770;28;20897;-68
2021/10/17 09:19:23;;;;;;;0.90;0.50;;;12.60;99.90;;;;;;5030884;28;20424;-67
2021/10/17 09:22:00;;;;;;;1.47;1.00;;;12.90;99.90;;;;;;5030926;28;21018;-68
2021/10/17 09:24:31;;;;;;;1.00;0.70;;;13.30;99.90;;;;;;5031956;28;20427;-68
2021/10/17 09:27:16;;;;;;;0.90;0.50;;;13.50;99.90;;;;;;5031784;28;20481;-67
2021/10/17 09:29:48;;;;;;;0.83;0.50;;;13.80;99.90;;;;;;5032201;28;20950;-68
2021/10/17 09:32:17;;;;;;;0.97;0.67;;;14.00;99.90;;;;;;5032040;28;20841;-68
2021/10/17 09:34:56;;;;;;;0.80;0.50;;;13.90;99.90;;;;;;5032190;28;20469;-67
2021/10/17 09:37:31;;;;;;;1.10;0.80;;;13.80;99.90;;;;;;5031521;28;20455;-68
2021/10/17 09:40:21;;;;;;;0.90;0.50;;;13.40;99.90;;;;;;5028780;28;20817;-68
2021/10/17 09:43:11;;;;;;;0.90;0.60;;;13.20;99.90;;;;;;5031988;28;20421;-69
2021/10/17 09:46:09;;;;;;;0.90;0.70;;;12.90;99.90;;;;;;5014014;28;20852;-67
2021/10/17 09:48:38;;;;;;;0.80;0.50;;;12.60;99.90;;;;;;5013674;28;20550;-68
2021/10/17 09:51:09;;;;;;;0.90;0.50;;;12.40;99.90;;;;;;5031819;28;20464;-68
2021/10/17 09:53:46;;;;;;;3.73;0.90;;;12.30;99.90;;;;;;5031492;28;20782;-69
2021/10/17 09:56:31;;;;;;;0.83;0.50;;;12.30;99.90;;;;;;5031305;28;20434;-68
2021/10/17 09:59:01;;;;;;;0.90;0.50;;;12.20;99.90;;;;;;5031496;28;20848;-69
2021/10/17 10:01:32;;;;;;;0.80;0.50;;;12.40;99.90;;;;;;5031349;28;20803;-67
2021/10/17 10:04:03;;;;;;;0.80;0.50;;;12.60;99.90;;;;;;5031456;28;20781;-68
2021/10/17 10:06:32;;;;;;;0.80;0.50;;;12.80;99.90;;;;;;5031870;28;20431;-67
2021/10/17 10:09:02;;;;;;;0.90;0.50;;;12.90;99.90;;;;;;5035151;28;20502;-68
2021/10/17 10:11:31;;;;;;;2.50;0.70;;;13.20;99.90;;;;;;5035108;28;20443;-68
2021/10/17 10:14:05;;;;;;;0.90;0.60;;;13.30;99.90;;;;;;5034940;28;20483;-67
2021/10/17 10:16:35;;;;;;;1.10;0.80;;;13.30;99.90;;;;;;5035191;28;20715;-67
2021/10/17 10:19:05;;;;;;;1.10;0.70;;;13.20;99.90;;;;;;5017354;28;20443;-68
2021/10/17 10:21:34;;;;;;;0.90;0.60;;;13.40;99.90;;;;;;5035079;28;20843;-68
2021/10/17 10:24:05;;;;;;;1.10;0.80;;;13.60;99.90;;;;;;5034853;28;20410;-68
2021/10/17 10:26:35;;;;;;;1.07;0.60;;;14.00;99.90;;;;;;5034985;28;20451;-68
2021/10/17 10:29:05;;;;;;;1.70;0.90;;;14.30;99.90;;;;;;5034635;28;20471;-69
2021/10/17 10:31:47;;;;;;;2.07;1.20;;;14.20;99.90;;;;;;5034627;28;20419;-68
2021/10/17 10:34:48;;;;;;;2.10;0.80;;;14.20;99.90;;;;;;5034738;28;20773;-68
2021/10/17 10:37:18;;;;;;;0.83;0.40;;;14.40;99.90;;;;;;5034743;28;20416;-67
2021/10/17 10:40:12;;;;;;;1.23;0.70;;;14.50;99.90;;;;;;5034949;28;20413;-69
2021/10/17 10:42:42;;;;;;;1.10;0.83;;;14.60;99.90;;;;;;5034150;28;20816;-68
2021/10/17 10:45:25;;;;;;;2.03;1.23;;;14.60;99.90;;;;;;5016940;28;20550;-69
2021/10/17 10:48:19;;;;;;;1.00;0.77;;;14.50;99.90;;;;;;5034699;28;20866;-68
2021/10/17 10:50:50;;;;;;;0.83;0.50;;;14.80;99.90;;;;;;5036267;28;20744;-69
2021/10/17 10:53:48;;;;;;;1.63;0.73;;;14.60;99.90;;;;;;5017177;28;20923;-70
2021/10/17 10:56:46;;;;;;;5.30;2.40;;;14.20;99.90;;;;;;5034775;28;20416;-70
2021/10/17 10:59:16;;;;;;;1.20;0.90;;;13.50;99.90;;;;;;5034506;28;20426;-69
2021/10/17 11:01:55;;;;;;;2.33;0.70;;;13.20;99.90;;;;;;5034183;28;20808;-69
2021/10/17 11:05:01;;;;;;;0.87;0.50;;;13.00;99.90;;;;;;5034169;28;20897;-69
2021/10/17 11:07:35;;;;;;;1.00;0.70;;;13.10;99.90;;;;;;5033738;28;20397;-68
2021/10/17 11:10:47;;;;;;;0.93;0.60;;;13.20;99.90;;;;;;5033745;28;20539;-69
2021/10/17 11:13:30;;;;;;;1.00;0.67;;;13.30;99.90;;;;;;5033549;28;20418;-68
2021/10/17 11:15:59;;;;;;;0.90;0.60;;;13.40;99.90;;;;;;5034010;28;20399;-68
2021/10/17 11:18:33;;;;;;;0.80;0.40;;;13.70;99.90;;;;;;5033495;28;20416;-68
2021/10/17 11:21:01;;;;;;;1.10;0.50;;;13.60;99.90;;;;;;5034208;28;20436;-67
2021/10/17 11:23:33;;;;;;;0.90;0.60;;;13.80;99.90;;;;;;5033489;28;20455;-67
2021/10/17 11:26:04;;;;;;;0.90;0.53;;;14.10;99.90;;;;;;5033669;28;20420;-69
2021/10/17 11:28:34;;;;;;;1.37;0.83;;;14.20;99.90;;;;;;5033341;28;20439;-70
2021/10/17 11:31:05;;;;;;;1.97;0.70;;;14.10;99.90;;;;;;5033537;28;20421;-69
2021/10/17 11:33:33;;;;;;;1.00;0.70;;;14.40;99.90;;;;;;5033659;28;20420;-70
2021/10/17 11:36:03;;;;;;;2.40;0.73;;;14.50;99.90;;;;;;5033303;28;20409;-69
2021/10/17 11:38:32;;;;;;;1.00;0.60;;;14.50;99.90;;;;;;5033238;28;20391;-69
2021/10/17 11:41:03;;;;;;;3.90;1.07;;;14.20;99.90;;;;;;5033172;28;20423;-68
2021/10/17 11:43:37;;;;;;;0.90;0.50;;;13.80;99.90;;;;;;5033177;28;20379;-69
2021/10/17 11:46:07;;;;;;;3.00;1.60;;;13.70;99.90;;;;;;5033005;28;20892;-68
2021/10/17 11:48:38;;;;;;;1.30;0.60;;;13.60;99.90;;;;;;5032888;28;20555;-70
2021/10/17 11:51:09;;;;;;;0.90;0.60;;;13.50;99.90;;;;;;5032931;28;20778;-69
2021/10/17 11:53:39;;;;;;;0.90;0.50;;;13.40;99.90;;;;;;5033137;28;20399;-70
2021/10/17 11:56:10;;;;;;;1.17;0.70;;;13.40;99.90;;;;;;5032898;28;20423;-69
2021/10/17 11:58:39;;;;;;;1.00;0.80;;;13.40;99.90;;;;;;5032800;28;20391;-69
2021/10/17 12:01:12;;;;;;;1.43;0.90;;;13.50;99.90;;;;;;5032831;28;20748;-69
2021/10/17 12:03:42;;;;;;;1.10;0.90;;;13.70;99.90;;;;;;5032633;28;20936;-70
2021/10/17 12:06:15;;;;;;;0.90;0.63;;;13.90;99.90;;;;;;5032768;28;20424;-69
2021/10/17 12:08:51;;;;;;;1.30;0.60;;;14.20;99.90;;;;;;5032534;28;20474;-70
2021/10/17 12:11:20;;;;;;;1.50;0.70;;;14.20;99.90;;;;;;5032539;28;20416;-67
2021/10/17 12:14:06;;;;;;;1.13;0.80;;;14.40;99.90;;;;;;5014627;28;20418;-69
2021/10/17 12:16:44;;;;;;;1.30;0.50;;;14.60;99.90;;;;;;5015058;28;20507;-69
2021/10/17 12:19:12;;;;;;;1.00;0.60;;;14.60;99.90;;;;;;5032632;28;20435;-68
2021/10/17 12:21:42;;;;;;;0.90;0.60;;;14.60;99.90;;;;;;5032660;28;20418;-70
2021/10/17 12:24:13;;;;;;;1.20;0.90;;;14.20;99.90;;;;;;5014758;28;20411;-70
2021/10/17 12:26:58;;;;;;;1.27;1.17;;;13.90;99.90;;;;;;5014794;28;20410;-68
2021/10/17 12:29:30;;;;;;;1.10;0.80;;;13.70;99.90;;;;;;5031615;28;20518;-67
2021/10/17 12:32:01;;;;;;;0.90;0.50;;;13.70;99.90;;;;;;5015037;28;20414;-70
2021/10/17 12:34:40;;;;;;;2.00;1.47;;;13.80;99.90;;;;;;5032110;28;20969;-68
2021/10/17 12:37:09;;;;;;;3.67;1.07;;;13.80;99.90;;;;;;5032452;28;20401;-69
2021/10/17 12:39:40;;;;;;;1.00;0.70;;;13.80;99.90;;;;;;5032539;28;20428;-68
2021/10/17 12:42:08;;;;;;;0.93;0.67;;;14.10;99.90;;;;;;5032603;28;20439;-69
2021/10/17 12:44:56;;;;;;;1.20;0.70;;;14.30;99.90;;;;;;5032207;28;20460;-69
2021/10/17 12:47:25;;;;;;;1.10;0.60;;;14.60;99.90;;;;;;5032174;28;20435;-69
2021/10/17 12:49:53;;;;;;;0.90;0.70;;;14.60;99.90;;;;;;5031971;28;20530;-69
2021/10/17 12:52:30;;;;;;;1.30;0.80;;;14.50;99.90;;;;;;5014274;28;20448;-68
2021/10/17 12:55:00;;;;;;;2.03;1.10;;;14.30;99.90;;;;;;5031955;28;20804;-69
2021/10/17 12:57:29;;;;;;;1.00;0.80;;;14.20;99.90;;;;;;5032077;28;20475;-71
2021/10/17 12:59:58;;;;;;;0.87;0.60;;;14.10;99.90;;;;;;5032146;28;20434;-69
2021/10/17 13:02:37;;;;;;;1.30;0.53;;;14.10;99.90;;;;;;5031846;28;20414;-68
2021/10/17 13:05:13;;;;;;;1.03;0.80;;;14.10;99.90;;;;;;5031862;28;20402;-69
2021/10/17 13:07:42;;;;;;;1.40;0.97;;;14.20;99.90;;;;;;5031702;28;20405;-68
2021/10/17 13:10:14;;;;;;;2.03;0.60;;;14.00;99.90;;;;;;5014083;28;20446;-68
2021/10/17 13:12:45;;;;;;;0.87;0.60;;;13.90;99.90;;;;;;5031684;28;20440;-67
2021/10/17 13:15:16;;;;;;;1.00;0.60;;;14.00;99.90;;;;;;5031572;28;20935;-67
2021/10/17 13:17:46;;;;;;;1.10;0.77;;;14.10;99.90;;;;;;5013809;28;20928;-68